Terminal Aerodrome Forecast
Issued by NWS Melbourne, FL

Home | Current Version | Previous Version | Text Only | Print | Product List | Glossary On
Versions: 1 2 3 4 5 6 7 8 9 10 11 12 13 14 15 16 17 18 19 20 21 22 23 24
128
FTUS42 KMLB 240658 AAA
TAFMLB
TAF AMD
KMLB 240658Z 2407/2506 05009G18KT P6SM VCSH SCT020 SCT040
      TEMPO 2407/2411 5SM SHRA SCT015 BKN030
     FM241400 04011KT P6SM VCSH SCT020 BKN050 BKN250
     FM242000 03012KT P6SM SCT025 SCT050 BKN250
     FM250100 03007KT P6SM SCT025 SCT250=

USA.gov is the U.S. government's official web portal to all federal, state and local government web resources and services.